Bom Sucesso, Brazil
Current Conditions -  °F | °C
As of 8:00 AM on Friday 31 Oct 2014 (Local Time) from SBBQ Reporting Station
Broken Clouds Broken Clouds  
Wind Chill: 66°   Ceiling: 900
Heat Index: 66°   Visibility: 6mi
Dew Point: 61°   Wind: 7mph
Humidity: 83%   Direction: 40°NE
Pressure: 30.18"   Gusts: NA
Location:  21.03°S, 44.76°W
Report Text: SBBQ 311000Z 04006KT 9999 BKN009 BKN038 19/16 Q1022
Loading
Personal Weather Stations






























Interactive Weather Map
Tropical Storm Tracking
New forecast layout! Learn more

10-Day Weather Forecast

Advertisements
Track Severe Weather on mobile